sensor_id;sensor_type;location;lat;lon;timestamp;temperature;humidity
17066;DHT22;23120;52.336;21.182;2023-07-02T00:01:47;18.40;99.90
17066;DHT22;23120;52.336;21.182;2023-07-02T00:04:14;18.40;99.90
17066;DHT22;23120;52.336;21.182;2023-07-02T00:06:42;18.30;99.90
17066;DHT22;23120;52.336;21.182;2023-07-02T00:09:09;18.30;99.90
17066;DHT22;23120;52.336;21.182;2023-07-02T00:11:39;18.30;99.90
17066;DHT22;23120;52.336;21.182;2023-07-02T00:14:06;18.30;99.90
17066;DHT22;23120;52.336;21.182;2023-07-02T00:16:35;18.20;99.90
17066;DHT22;23120;52.336;21.182;2023-07-02T00:19:02;18.20;99.90
17066;DHT22;23120;52.336;21.182;2023-07-02T00:21:30;18.20;99.90
17066;DHT22;23120;52.336;21.182;2023-07-02T00:23:59;18.10;99.90
17066;DHT22;23120;52.336;21.182;2023-07-02T00:26:26;18.10;99.90
17066;DHT22;23120;52.336;21.182;2023-07-02T00:28:55;18.10;99.90
17066;DHT22;23120;52.336;21.182;2023-07-02T00:31:23;18.00;99.90
17066;DHT22;23120;52.336;21.182;2023-07-02T00:33:50;18.00;99.90
17066;DHT22;23120;52.336;21.182;2023-07-02T00:36:17;18.00;99.90
17066;DHT22;23120;52.336;21.182;2023-07-02T00:38:45;17.90;99.90
17066;DHT22;23120;52.336;21.182;2023-07-02T00:41:12;17.90;99.90
17066;DHT22;23120;52.336;21.182;2023-07-02T00:43:39;17.80;99.90
17066;DHT22;23120;52.336;21.182;2023-07-02T00:46:11;17.80;99.90
17066;DHT22;23120;52.336;21.182;2023-07-02T00:48:40;17.80;99.90
17066;DHT22;23120;52.336;21.182;2023-07-02T00:51:08;17.70;99.90
17066;DHT22;23120;52.336;21.182;2023-07-02T00:53:35;17.70;99.90
17066;DHT22;23120;52.336;21.182;2023-07-02T00:56:02;17.70;99.90
17066;DHT22;23120;52.336;21.182;2023-07-02T00:58:29;17.70;99.90
17066;DHT22;23120;52.336;21.182;2023-07-02T01:00:56;17.60;99.90
17066;DHT22;23120;52.336;21.182;2023-07-02T01:03:25;17.60;99.90
17066;DHT22;23120;52.336;21.182;2023-07-02T01:05:51;17.50;99.90
17066;DHT22;23120;52.336;21.182;2023-07-02T01:08:18;17.50;99.90
17066;DHT22;23120;52.336;21.182;2023-07-02T01:10:45;17.50;99.90
17066;DHT22;23120;52.336;21.182;2023-07-02T01:13:15;17.40;99.90
17066;DHT22;23120;52.336;21.182;2023-07-02T01:15:44;17.40;99.90
17066;DHT22;23120;52.336;21.182;2023-07-02T01:18:13;17.40;99.90
17066;DHT22;23120;52.336;21.182;2023-07-02T01:20:42;17.40;99.90
17066;DHT22;23120;52.336;21.182;2023-07-02T01:23:09;17.30;99.90
17066;DHT22;23120;52.336;21.182;2023-07-02T01:25:36;17.30;99.90
17066;DHT22;23120;52.336;21.182;2023-07-02T01:28:04;17.20;99.90
17066;DHT22;23120;52.336;21.182;2023-07-02T01:30:31;17.20;99.90
17066;DHT22;23120;52.336;21.182;2023-07-02T01:32:58;17.20;99.90
17066;DHT22;23120;52.336;21.182;2023-07-02T01:35:25;17.10;99.90
17066;DHT22;23120;52.336;21.182;2023-07-02T01:37:54;17.10;99.90
17066;DHT22;23120;52.336;21.182;2023-07-02T01:40:21;17.00;99.90
17066;DHT22;23120;52.336;21.182;2023-07-02T01:42:47;17.10;99.90
17066;DHT22;23120;52.336;21.182;2023-07-02T01:45:14;17.00;99.90
17066;DHT22;23120;52.336;21.182;2023-07-02T01:47:41;17.00;99.90
17066;DHT22;23120;52.336;21.182;2023-07-02T01:50:09;16.90;99.90
17066;DHT22;23120;52.336;21.182;2023-07-02T01:52:36;16.90;99.90
17066;DHT22;23120;52.336;21.182;2023-07-02T01:55:05;16.90;99.90
17066;DHT22;23120;52.336;21.182;2023-07-02T01:57:32;16.90;99.90
17066;DHT22;23120;52.336;21.182;2023-07-02T01:59:59;16.80;99.90
17066;DHT22;23120;52.336;21.182;2023-07-02T02:02:26;16.80;99.90
17066;DHT22;23120;52.336;21.182;2023-07-02T02:04:53;16.80;99.90
17066;DHT22;23120;52.336;21.182;2023-07-02T02:07:22;16.80;99.90
17066;DHT22;23120;52.336;21.182;2023-07-02T02:09:48;16.80;99.90
17066;DHT22;23120;52.336;21.182;2023-07-02T02:12:17;16.80;99.90
17066;DHT22;23120;52.336;21.182;2023-07-02T02:14:44;16.70;99.90
17066;DHT22;23120;52.336;21.182;2023-07-02T02:17:11;16.70;99.90
17066;DHT22;23120;52.336;21.182;2023-07-02T02:19:38;16.70;99.90
17066;DHT22;23120;52.336;21.182;2023-07-02T02:22:05;16.70;99.90
17066;DHT22;23120;52.336;21.182;2023-07-02T02:24:33;16.70;99.90
17066;DHT22;23120;52.336;21.182;2023-07-02T02:27:00;16.60;99.90
17066;DHT22;23120;52.336;21.182;2023-07-02T02:29:28;16.70;99.90
17066;DHT22;23120;52.336;21.182;2023-07-02T02:31:55;16.70;99.90
17066;DHT22;23120;52.336;21.182;2023-07-02T02:34:22;16.60;99.90
17066;DHT22;23120;52.336;21.182;2023-07-02T02:36:49;16.60;99.90
17066;DHT22;23120;52.336;21.182;2023-07-02T02:39:16;16.70;99.90
17066;DHT22;23120;52.336;21.182;2023-07-02T02:41:43;16.70;99.90
17066;DHT22;23120;52.336;21.182;2023-07-02T02:44:13;16.70;99.90
17066;DHT22;23120;52.336;21.182;2023-07-02T02:46:42;16.70;99.90
17066;DHT22;23120;52.336;21.182;2023-07-02T02:49:09;16.70;99.90
17066;DHT22;23120;52.336;21.182;2023-07-02T02:51:36;16.70;99.90
17066;DHT22;23120;52.336;21.182;2023-07-02T02:54:03;16.70;99.90
17066;DHT22;23120;52.336;21.182;2023-07-02T02:56:29;16.80;99.90
17066;DHT22;23120;52.336;21.182;2023-07-02T02:58:56;16.80;99.90
17066;DHT22;23120;52.336;21.182;2023-07-02T03:01:23;16.80;99.90
17066;DHT22;23120;52.336;21.182;2023-07-02T03:03:58;16.80;99.90
17066;DHT22;23120;52.336;21.182;2023-07-02T03:06:25;16.90;99.90
17066;DHT22;23120;52.336;21.182;2023-07-02T03:08:52;16.90;99.90
17066;DHT22;23120;52.336;21.182;2023-07-02T03:11:19;16.90;99.90
17066;DHT22;23120;52.336;21.182;2023-07-02T03:13:46;16.90;99.90
17066;DHT22;23120;52.336;21.182;2023-07-02T03:16:13;17.00;99.90
17066;DHT22;23120;52.336;21.182;2023-07-02T03:18:40;17.00;99.90
17066;DHT22;23120;52.336;21.182;2023-07-02T03:21:09;17.00;99.90
17066;DHT22;23120;52.336;21.182;2023-07-02T03:23:36;17.00;99.90
17066;DHT22;23120;52.336;21.182;2023-07-02T03:26:03;17.00;99.90
17066;DHT22;23120;52.336;21.182;2023-07-02T03:28:30;17.10;99.90
17066;DHT22;23120;52.336;21.182;2023-07-02T03:30:59;17.10;99.90
17066;DHT22;23120;52.336;21.182;2023-07-02T03:33:26;17.10;99.90
17066;DHT22;23120;52.336;21.182;2023-07-02T03:35:53;17.20;99.90
17066;DHT22;23120;52.336;21.182;2023-07-02T03:38:21;17.20;99.90
17066;DHT22;23120;52.336;21.182;2023-07-02T03:40:48;17.20;99.90
17066;DHT22;23120;52.336;21.182;2023-07-02T03:43:15;17.20;99.90
17066;DHT22;23120;52.336;21.182;2023-07-02T03:45:42;17.30;99.90
17066;DHT22;23120;52.336;21.182;2023-07-02T03:48:08;17.30;99.90
17066;DHT22;23120;52.336;21.182;2023-07-02T03:50:35;17.30;99.90
17066;DHT22;23120;52.336;21.182;2023-07-02T03:53:02;17.30;99.90
17066;DHT22;23120;52.336;21.182;2023-07-02T03:55:31;17.40;99.90
17066;DHT22;23120;52.336;21.182;2023-07-02T03:57:58;17.40;99.90
17066;DHT22;23120;52.336;21.182;2023-07-02T04:00:24;17.40;99.90
17066;DHT22;23120;52.336;21.182;2023-07-02T04:02:51;17.40;99.90
17066;DHT22;23120;52.336;21.182;2023-07-02T04:05:18;17.50;99.90
17066;DHT22;23120;52.336;21.182;2023-07-02T04:07:45;17.50;99.90
17066;DHT22;23120;52.336;21.182;2023-07-02T04:10:12;17.50;99.90
17066;DHT22;23120;52.336;21.182;2023-07-02T04:12:41;17.50;99.90
17066;DHT22;23120;52.336;21.182;2023-07-02T04:15:08;17.60;99.90
17066;DHT22;23120;52.336;21.182;2023-07-02T04:17:35;17.60;99.90
17066;DHT22;23120;52.336;21.182;2023-07-02T04:20:03;17.60;99.90
17066;DHT22;23120;52.336;21.182;2023-07-02T04:22:30;17.70;99.90
17066;DHT22;23120;52.336;21.182;2023-07-02T04:24:57;17.70;99.90
17066;DHT22;23120;52.336;21.182;2023-07-02T04:27:24;17.70;99.90
17066;DHT22;23120;52.336;21.182;2023-07-02T04:29:53;17.80;99.90
17066;DHT22;23120;52.336;21.182;2023-07-02T04:32:21;17.80;99.90
17066;DHT22;23120;52.336;21.182;2023-07-02T04:34:48;17.80;99.90
17066;DHT22;23120;52.336;21.182;2023-07-02T04:37:15;17.80;99.90
17066;DHT22;23120;52.336;21.182;2023-07-02T04:39:42;17.80;99.90
17066;DHT22;23120;52.336;21.182;2023-07-02T04:42:09;17.90;99.90
17066;DHT22;23120;52.336;21.182;2023-07-02T04:44:40;17.90;99.90
17066;DHT22;23120;52.336;21.182;2023-07-02T04:47:10;17.90;99.90
17066;DHT22;23120;52.336;21.182;2023-07-02T04:49:37;17.90;99.90
17066;DHT22;23120;52.336;21.182;2023-07-02T04:52:04;18.00;99.90
17066;DHT22;23120;52.336;21.182;2023-07-02T04:54:31;18.00;99.90
17066;DHT22;23120;52.336;21.182;2023-07-02T04:56:58;18.00;99.90
17066;DHT22;23120;52.336;21.182;2023-07-02T04:59:25;18.00;99.90
17066;DHT22;23120;52.336;21.182;2023-07-02T05:01:52;18.10;99.90
17066;DHT22;23120;52.336;21.182;2023-07-02T05:04:21;18.10;99.90
17066;DHT22;23120;52.336;21.182;2023-07-02T05:06:48;18.20;99.90
17066;DHT22;23120;52.336;21.182;2023-07-02T05:09:14;18.20;99.90
17066;DHT22;23120;52.336;21.182;2023-07-02T05:11:41;18.20;99.90
17066;DHT22;23120;52.336;21.182;2023-07-02T05:14:08;18.20;99.90
17066;DHT22;23120;52.336;21.182;2023-07-02T05:16:35;18.30;99.90
17066;DHT22;23120;52.336;21.182;2023-07-02T05:19:02;18.30;99.90
17066;DHT22;23120;52.336;21.182;2023-07-02T05:21:30;18.30;99.90
17066;DHT22;23120;52.336;21.182;2023-07-02T05:23:57;18.30;99.90
17066;DHT22;23120;52.336;21.182;2023-07-02T05:26:24;18.30;99.90
17066;DHT22;23120;52.336;21.182;2023-07-02T05:28:51;18.40;99.90
17066;DHT22;23120;52.336;21.182;2023-07-02T05:31:18;18.40;99.90
17066;DHT22;23120;52.336;21.182;2023-07-02T05:33:45;18.40;99.90
17066;DHT22;23120;52.336;21.182;2023-07-02T05:36:12;18.40;99.90
17066;DHT22;23120;52.336;21.182;2023-07-02T05:38:41;18.50;99.90
17066;DHT22;23120;52.336;21.182;2023-07-02T05:41:08;18.50;99.90
17066;DHT22;23120;52.336;21.182;2023-07-02T05:43:35;18.50;99.90
17066;DHT22;23120;52.336;21.182;2023-07-02T05:46:01;18.50;99.90
17066;DHT22;23120;52.336;21.182;2023-07-02T05:48:28;18.60;99.90
17066;DHT22;23120;52.336;21.182;2023-07-02T05:50:55;18.60;99.90
17066;DHT22;23120;52.336;21.182;2023-07-02T05:53:22;18.60;99.90
17066;DHT22;23120;52.336;21.182;2023-07-02T05:55:50;18.60;99.90
17066;DHT22;23120;52.336;21.182;2023-07-02T05:58:18;18.70;99.90
17066;DHT22;23120;52.336;21.182;2023-07-02T06:00:45;18.70;99.90
17066;DHT22;23120;52.336;21.182;2023-07-02T06:03:15;18.80;99.90
17066;DHT22;23120;52.336;21.182;2023-07-02T06:05:46;18.80;99.90
17066;DHT22;23120;52.336;21.182;2023-07-02T06:08:14;18.80;99.90
17066;DHT22;23120;52.336;21.182;2023-07-02T06:10:41;18.80;99.90
17066;DHT22;23120;52.336;21.182;2023-07-02T06:13:09;18.90;99.90
17066;DHT22;23120;52.336;21.182;2023-07-02T06:15:36;18.90;99.90
17066;DHT22;23120;52.336;21.182;2023-07-02T06:18:03;18.90;99.90
17066;DHT22;23120;52.336;21.182;2023-07-02T06:20:30;19.00;99.90
17066;DHT22;23120;52.336;21.182;2023-07-02T06:22:57;19.00;99.90
17066;DHT22;23120;52.336;21.182;2023-07-02T06:25:24;19.00;99.90
17066;DHT22;23120;52.336;21.182;2023-07-02T06:27:51;19.00;99.90
17066;DHT22;23120;52.336;21.182;2023-07-02T06:30:21;19.10;99.90
17066;DHT22;23120;52.336;21.182;2023-07-02T06:32:48;19.10;99.90
17066;DHT22;23120;52.336;21.182;2023-07-02T06:35:15;19.10;99.90
17066;DHT22;23120;52.336;21.182;2023-07-02T06:37:42;19.20;99.90
17066;DHT22;23120;52.336;21.182;2023-07-02T06:40:09;19.20;99.90
17066;DHT22;23120;52.336;21.182;2023-07-02T06:42:36;19.20;99.90
17066;DHT22;23120;52.336;21.182;2023-07-02T06:45:04;19.20;99.90
17066;DHT22;23120;52.336;21.182;2023-07-02T06:47:33;19.20;99.90
17066;DHT22;23120;52.336;21.182;2023-07-02T06:50:00;19.30;99.90
17066;DHT22;23120;52.336;21.182;2023-07-02T06:52:27;19.30;99.90
17066;DHT22;23120;52.336;21.182;2023-07-02T06:54:54;19.30;99.90
17066;DHT22;23120;52.336;21.182;2023-07-02T06:57:21;19.40;99.90
17066;DHT22;23120;52.336;21.182;2023-07-02T06:59:49;19.50;99.90
17066;DHT22;23120;52.336;21.182;2023-07-02T07:02:16;20.10;99.90
17066;DHT22;23120;52.336;21.182;2023-07-02T07:04:44;20.50;99.00
17066;DHT22;23120;52.336;21.182;2023-07-02T07:07:11;20.80;98.30
17066;DHT22;23120;52.336;21.182;2023-07-02T07:09:38;20.90;97.60
17066;DHT22;23120;52.336;21.182;2023-07-02T07:12:06;21.00;97.10
17066;DHT22;23120;52.336;21.182;2023-07-02T07:14:33;21.10;96.50
17066;DHT22;23120;52.336;21.182;2023-07-02T07:16:59;21.10;96.70
17066;DHT22;23120;52.336;21.182;2023-07-02T07:19:26;21.20;96.40
17066;DHT22;23120;52.336;21.182;2023-07-02T07:21:54;21.30;96.40
17066;DHT22;23120;52.336;21.182;2023-07-02T07:24:21;21.40;96.30
17066;DHT22;23120;52.336;21.182;2023-07-02T07:26:48;21.50;96.40
17066;DHT22;23120;52.336;21.182;2023-07-02T07:29:15;21.50;96.20
17066;DHT22;23120;52.336;21.182;2023-07-02T07:31:43;21.60;95.50
17066;DHT22;23120;52.336;21.182;2023-07-02T07:34:10;21.60;95.50
17066;DHT22;23120;52.336;21.182;2023-07-02T07:36:37;21.60;95.80
17066;DHT22;23120;52.336;21.182;2023-07-02T07:39:05;21.60;96.00
17066;DHT22;23120;52.336;21.182;2023-07-02T07:41:32;21.50;96.40
17066;DHT22;23120;52.336;21.182;2023-07-02T07:43:58;21.40;96.70
17066;DHT22;23120;52.336;21.182;2023-07-02T07:46:26;21.40;97.50
17066;DHT22;23120;52.336;21.182;2023-07-02T07:48:53;21.40;97.30
17066;DHT22;23120;52.336;21.182;2023-07-02T07:51:19;21.20;97.70
17066;DHT22;23120;52.336;21.182;2023-07-02T07:53:46;21.20;97.80
17066;DHT22;23120;52.336;21.182;2023-07-02T07:56:14;21.20;97.90
17066;DHT22;23120;52.336;21.182;2023-07-02T07:58:41;21.10;98.10
17066;DHT22;23120;52.336;21.182;2023-07-02T08:01:08;21.10;98.10
17066;DHT22;23120;52.336;21.182;2023-07-02T08:03:37;21.10;98.10
17066;DHT22;23120;52.336;21.182;2023-07-02T08:06:04;21.00;97.90
17066;DHT22;23120;52.336;21.182;2023-07-02T08:08:31;20.90;97.90
17066;DHT22;23120;52.336;21.182;2023-07-02T08:10:57;20.90;97.90
17066;DHT22;23120;52.336;21.182;2023-07-02T08:13:25;20.90;98.20
17066;DHT22;23120;52.336;21.182;2023-07-02T08:15:52;20.90;98.40
17066;DHT22;23120;52.336;21.182;2023-07-02T08:18:19;20.80;98.50
17066;DHT22;23120;52.336;21.182;2023-07-02T08:20:46;20.80;98.70
17066;DHT22;23120;52.336;21.182;2023-07-02T08:23:13;20.80;99.40
17066;DHT22;23120;52.336;21.182;2023-07-02T08:25:40;20.80;99.30
17066;DHT22;23120;52.336;21.182;2023-07-02T08:28:07;20.80;99.30
17066;DHT22;23120;52.336;21.182;2023-07-02T08:30:35;20.90;99.30
17066;DHT22;23120;52.336;21.182;2023-07-02T08:33:02;21.00;99.40
17066;DHT22;23120;52.336;21.182;2023-07-02T08:35:29;21.00;99.20
17066;DHT22;23120;52.336;21.182;2023-07-02T08:37:56;21.00;99.10
17066;DHT22;23120;52.336;21.182;2023-07-02T08:40:23;21.10;99.00
17066;DHT22;23120;52.336;21.182;2023-07-02T08:42:50;21.20;99.30
17066;DHT22;23120;52.336;21.182;2023-07-02T08:45:17;21.30;99.10
17066;DHT22;23120;52.336;21.182;2023-07-02T08:47:45;21.40;99.30
17066;DHT22;23120;52.336;21.182;2023-07-02T08:50:12;21.50;99.10
17066;DHT22;23120;52.336;21.182;2023-07-02T08:52:39;21.50;99.00
17066;DHT22;23120;52.336;21.182;2023-07-02T08:55:07;21.50;98.70
17066;DHT22;23120;52.336;21.182;2023-07-02T08:57:34;21.70;98.80
17066;DHT22;23120;52.336;21.182;2023-07-02T09:00:05;21.70;98.70
17066;DHT22;23120;52.336;21.182;2023-07-02T09:02:35;21.70;98.40
17066;DHT22;23120;52.336;21.182;2023-07-02T09:05:03;21.60;98.20
17066;DHT22;23120;52.336;21.182;2023-07-02T09:07:31;21.70;98.30
17066;DHT22;23120;52.336;21.182;2023-07-02T09:09:58;21.70;98.40
17066;DHT22;23120;52.336;21.182;2023-07-02T09:12:25;21.70;98.20
17066;DHT22;23120;52.336;21.182;2023-07-02T09:14:57;21.80;98.10
17066;DHT22;23120;52.336;21.182;2023-07-02T09:17:27;22.00;98.40
17066;DHT22;23120;52.336;21.182;2023-07-02T09:19:56;22.10;97.90
17066;DHT22;23120;52.336;21.182;2023-07-02T09:22:25;22.10;98.20
17066;DHT22;23120;52.336;21.182;2023-07-02T09:24:53;22.30;97.70
17066;DHT22;23120;52.336;21.182;2023-07-02T09:27:20;22.30;97.70
17066;DHT22;23120;52.336;21.182;2023-07-02T09:29:51;22.30;97.20
17066;DHT22;23120;52.336;21.182;2023-07-02T09:32:26;22.30;97.10
17066;DHT22;23120;52.336;21.182;2023-07-02T09:34:55;22.30;97.00
17066;DHT22;23120;52.336;21.182;2023-07-02T09:37:22;22.40;96.90
17066;DHT22;23120;52.336;21.182;2023-07-02T09:39:51;22.30;96.60
17066;DHT22;23120;52.336;21.182;2023-07-02T09:42:20;22.30;96.40
17066;DHT22;23120;52.336;21.182;2023-07-02T09:44:48;22.30;96.50
17066;DHT22;23120;52.336;21.182;2023-07-02T09:47:19;22.30;96.40
17066;DHT22;23120;52.336;21.182;2023-07-02T09:49:52;22.30;96.30
17066;DHT22;23120;52.336;21.182;2023-07-02T09:52:19;22.30;96.60
17066;DHT22;23120;52.336;21.182;2023-07-02T09:54:47;22.30;96.50
17066;DHT22;23120;52.336;21.182;2023-07-02T09:57:15;22.40;96.50
17066;DHT22;23120;52.336;21.182;2023-07-02T09:59:42;22.40;96.40
17066;DHT22;23120;52.336;21.182;2023-07-02T10:02:09;22.50;96.60
17066;DHT22;23120;52.336;21.182;2023-07-02T10:04:40;22.70;96.40
17066;DHT22;23120;52.336;21.182;2023-07-02T10:07:08;22.80;96.00
17066;DHT22;23120;52.336;21.182;2023-07-02T10:09:36;23.00;95.90
17066;DHT22;23120;52.336;21.182;2023-07-02T10:12:19;23.10;95.80
17066;DHT22;23120;52.336;21.182;2023-07-02T10:14:47;23.30;95.70
17066;DHT22;23120;52.336;21.182;2023-07-02T10:17:25;23.30;94.70
17066;DHT22;23120;52.336;21.182;2023-07-02T10:19:55;23.20;94.60
17066;DHT22;23120;52.336;21.182;2023-07-02T10:22:23;23.30;94.70
17066;DHT22;23120;52.336;21.182;2023-07-02T10:24:55;23.30;94.70
17066;DHT22;23120;52.336;21.182;2023-07-02T10:27:39;23.40;94.60
17066;DHT22;23120;52.336;21.182;2023-07-02T10:30:08;23.60;94.40
17066;DHT22;23120;52.336;21.182;2023-07-02T10:32:36;23.60;94.70
17066;DHT22;23120;52.336;21.182;2023-07-02T10:35:13;23.80;94.60
17066;DHT22;23120;52.336;21.182;2023-07-02T10:37:41;24.10;94.50
17066;DHT22;23120;52.336;21.182;2023-07-02T10:40:09;24.30;93.90
17066;DHT22;23120;52.336;21.182;2023-07-02T10:42:46;24.50;94.00
17066;DHT22;23120;52.336;21.182;2023-07-02T10:45:13;24.70;93.50
17066;DHT22;23120;52.336;21.182;2023-07-02T10:47:40;24.70;92.90
17066;DHT22;23120;52.336;21.182;2023-07-02T10:50:15;24.70;92.10
17066;DHT22;23120;52.336;21.182;2023-07-02T10:52:41;24.40;91.60
17066;DHT22;23120;52.336;21.182;2023-07-02T10:55:08;24.50;91.70
17066;DHT22;23120;52.336;21.182;2023-07-02T10:57:35;24.50;91.60
17066;DHT22;23120;52.336;21.182;2023-07-02T11:00:07;24.30;91.60
17066;DHT22;23120;52.336;21.182;2023-07-02T11:02:34;24.20;92.00
17066;DHT22;23120;52.336;21.182;2023-07-02T11:05:01;24.10;91.50
17066;DHT22;23120;52.336;21.182;2023-07-02T11:07:28;24.10;91.50
17066;DHT22;23120;52.336;21.182;2023-07-02T11:09:55;23.60;91.20
17066;DHT22;23120;52.336;21.182;2023-07-02T11:12:27;23.60;91.20
17066;DHT22;23120;52.336;21.182;2023-07-02T11:14:54;23.40;90.80
17066;DHT22;23120;52.336;21.182;2023-07-02T11:19:53;23.50;94.60
17066;DHT22;23120;52.336;21.182;2023-07-02T11:22:20;23.40;96.90
17066;DHT22;23120;52.336;21.182;2023-07-02T11:24:57;23.30;97.60
17066;DHT22;23120;52.336;21.182;2023-07-02T11:27:23;23.20;95.50
17066;DHT22;23120;52.336;21.182;2023-07-02T11:29:59;23.20;95.30
17066;DHT22;23120;52.336;21.182;2023-07-02T11:32:27;23.10;97.00
17066;DHT22;23120;52.336;21.182;2023-07-02T11:34:55;22.90;99.20
17066;DHT22;23120;52.336;21.182;2023-07-02T11:37:22;22.90;99.90
17066;DHT22;23120;52.336;21.182;2023-07-02T11:39:48;22.80;99.90
17066;DHT22;23120;52.336;21.182;2023-07-02T11:42:15;22.80;99.90
17066;DHT22;23120;52.336;21.182;2023-07-02T11:44:42;22.90;99.90
17066;DHT22;23120;52.336;21.182;2023-07-02T11:47:09;22.90;99.90
17066;DHT22;23120;52.336;21.182;2023-07-02T11:49:37;23.00;99.90
17066;DHT22;23120;52.336;21.182;2023-07-02T11:52:04;23.20;99.90
17066;DHT22;23120;52.336;21.182;2023-07-02T11:54:31;23.40;99.90
17066;DHT22;23120;52.336;21.182;2023-07-02T11:56:58;23.40;99.90
17066;DHT22;23120;52.336;21.182;2023-07-02T11:59:24;23.50;99.90
17066;DHT22;23120;52.336;21.182;2023-07-02T12:01:51;23.70;99.90
17066;DHT22;23120;52.336;21.182;2023-07-02T12:04:18;23.70;99.90
17066;DHT22;23120;52.336;21.182;2023-07-02T12:06:46;23.70;99.90
17066;DHT22;23120;52.336;21.182;2023-07-02T12:09:13;23.70;99.30
17066;DHT22;23120;52.336;21.182;2023-07-02T12:11:40;23.70;99.30
17066;DHT22;23120;52.336;21.182;2023-07-02T12:14:07;23.80;99.50
17066;DHT22;23120;52.336;21.182;2023-07-02T12:16:34;23.90;99.40
17066;DHT22;23120;52.336;21.182;2023-07-02T12:19:00;23.90;98.70
17066;DHT22;23120;52.336;21.182;2023-07-02T12:21:27;23.90;98.70
17066;DHT22;23120;52.336;21.182;2023-07-02T12:23:56;24.00;98.80
17066;DHT22;23120;52.336;21.182;2023-07-02T12:26:22;24.20;98.60
17066;DHT22;23120;52.336;21.182;2023-07-02T12:28:49;24.30;98.90
17066;DHT22;23120;52.336;21.182;2023-07-02T12:31:16;24.30;98.20
17066;DHT22;23120;52.336;21.182;2023-07-02T12:33:43;24.50;98.40
17066;DHT22;23120;52.336;21.182;2023-07-02T12:36:10;24.60;98.40
17066;DHT22;23120;52.336;21.182;2023-07-02T12:38:36;24.70;98.00
17066;DHT22;23120;52.336;21.182;2023-07-02T12:41:05;24.90;97.80
17066;DHT22;23120;52.336;21.182;2023-07-02T12:43:31;25.00;95.90
17066;DHT22;23120;52.336;21.182;2023-07-02T12:45:58;25.20;94.80
17066;DHT22;23120;52.336;21.182;2023-07-02T12:48:25;25.30;94.40
17066;DHT22;23120;52.336;21.182;2023-07-02T12:50:56;25.30;94.50
17066;DHT22;23120;52.336;21.182;2023-07-02T12:53:23;25.40;94.10
17066;DHT22;23120;52.336;21.182;2023-07-02T12:55:50;25.50;93.90
17066;DHT22;23120;52.336;21.182;2023-07-02T12:58:18;25.50;94.20
17066;DHT22;23120;52.336;21.182;2023-07-02T13:00:46;25.50;94.20
17066;DHT22;23120;52.336;21.182;2023-07-02T13:03:14;25.50;94.20
17066;DHT22;23120;52.336;21.182;2023-07-02T13:05:41;25.50;93.60
17066;DHT22;23120;52.336;21.182;2023-07-02T13:08:07;25.60;93.40
17066;DHT22;23120;52.336;21.182;2023-07-02T13:10:36;25.60;93.20
17066;DHT22;23120;52.336;21.182;2023-07-02T13:13:03;25.80;94.00
17066;DHT22;23120;52.336;21.182;2023-07-02T13:15:31;26.00;94.20
17066;DHT22;23120;52.336;21.182;2023-07-02T13:18:00;26.20;94.50
17066;DHT22;23120;52.336;21.182;2023-07-02T13:20:27;26.40;93.60
17066;DHT22;23120;52.336;21.182;2023-07-02T13:22:54;26.40;91.90
17066;DHT22;23120;52.336;21.182;2023-07-02T13:25:20;26.50;92.40
17066;DHT22;23120;52.336;21.182;2023-07-02T13:27:47;26.70;91.30
17066;DHT22;23120;52.336;21.182;2023-07-02T13:30:14;26.60;90.70
17066;DHT22;23120;52.336;21.182;2023-07-02T13:32:42;26.70;91.80
17066;DHT22;23120;52.336;21.182;2023-07-02T13:35:09;26.60;90.30
17066;DHT22;23120;52.336;21.182;2023-07-02T13:37:36;26.50;90.70
17066;DHT22;23120;52.336;21.182;2023-07-02T13:40:03;26.40;87.00
17066;DHT22;23120;52.336;21.182;2023-07-02T13:42:32;26.50;88.30
17066;DHT22;23120;52.336;21.182;2023-07-02T13:44:58;26.30;85.70
17066;DHT22;23120;52.336;21.182;2023-07-02T13:47:25;26.20;86.30
17066;DHT22;23120;52.336;21.182;2023-07-02T13:49:55;26.10;85.00
17066;DHT22;23120;52.336;21.182;2023-07-02T13:52:22;26.10;84.20
17066;DHT22;23120;52.336;21.182;2023-07-02T13:54:49;26.00;83.70
17066;DHT22;23120;52.336;21.182;2023-07-02T13:57:16;26.10;84.20
17066;DHT22;23120;52.336;21.182;2023-07-02T13:59:44;25.90;83.00
17066;DHT22;23120;52.336;21.182;2023-07-02T14:02:11;25.80;83.70
17066;DHT22;23120;52.336;21.182;2023-07-02T14:04:37;25.80;82.10
17066;DHT22;23120;52.336;21.182;2023-07-02T14:07:05;25.70;80.70
17066;DHT22;23120;52.336;21.182;2023-07-02T14:09:32;25.70;82.00
17066;DHT22;23120;52.336;21.182;2023-07-02T14:11:59;25.70;81.50
17066;DHT22;23120;52.336;21.182;2023-07-02T14:14:26;25.80;83.80
17066;DHT22;23120;52.336;21.182;2023-07-02T14:16:54;25.90;83.00
17066;DHT22;23120;52.336;21.182;2023-07-02T14:19:20;25.90;81.70
17066;DHT22;23120;52.336;21.182;2023-07-02T14:21:47;25.90;77.70
17066;DHT22;23120;52.336;21.182;2023-07-02T14:24:15;26.10;78.90
17066;DHT22;23120;52.336;21.182;2023-07-02T14:26:41;26.40;78.30
17066;DHT22;23120;52.336;21.182;2023-07-02T14:29:09;26.70;78.30
17066;DHT22;23120;52.336;21.182;2023-07-02T14:31:36;26.90;76.50
17066;DHT22;23120;52.336;21.182;2023-07-02T14:34:04;27.00;76.70
17066;DHT22;23120;52.336;21.182;2023-07-02T14:36:31;27.10;77.00
17066;DHT22;23120;52.336;21.182;2023-07-02T14:38:58;27.30;77.00
17066;DHT22;23120;52.336;21.182;2023-07-02T14:41:26;27.40;77.40
17066;DHT22;23120;52.336;21.182;2023-07-02T14:43:53;27.30;73.90
17066;DHT22;23120;52.336;21.182;2023-07-02T14:46:20;27.20;74.60
17066;DHT22;23120;52.336;21.182;2023-07-02T14:48:48;27.20;75.70
17066;DHT22;23120;52.336;21.182;2023-07-02T14:51:16;27.10;73.80
17066;DHT22;23120;52.336;21.182;2023-07-02T14:53:43;27.00;73.80
17066;DHT22;23120;52.336;21.182;2023-07-02T14:56:10;26.90;73.50
17066;DHT22;23120;52.336;21.182;2023-07-02T14:58:37;26.90;74.50
17066;DHT22;23120;52.336;21.182;2023-07-02T15:01:03;26.80;74.30
17066;DHT22;23120;52.336;21.182;2023-07-02T15:03:31;26.60;75.00
17066;DHT22;23120;52.336;21.182;2023-07-02T15:06:06;26.60;74.90
17066;DHT22;23120;52.336;21.182;2023-07-02T15:08:34;26.60;74.60
17066;DHT22;23120;52.336;21.182;2023-07-02T15:11:02;26.60;75.00
17066;DHT22;23120;52.336;21.182;2023-07-02T15:13:32;26.40;73.20
17066;DHT22;23120;52.336;21.182;2023-07-02T15:15:59;26.50;72.70
17066;DHT22;23120;52.336;21.182;2023-07-02T15:18:26;26.70;72.30
17066;DHT22;23120;52.336;21.182;2023-07-02T15:20:54;26.80;73.10